createdAt,value
2023-04-30T00:00:59.000Z,4.7
2023-04-30T00:02:15.000Z,4.9
2023-04-30T00:03:32.000Z,4.7
2023-04-30T00:04:48.000Z,5.3
2023-04-30T00:06:04.000Z,5.2
2023-04-30T00:07:21.139Z,5.1
2023-04-30T00:08:36.462Z,5
2023-04-30T00:09:52.000Z,5.3
2023-04-30T00:11:08.000Z,5.2
2023-04-30T00:12:25.295Z,4.5
2023-04-30T00:13:41.000Z,4.9
2023-04-30T00:14:57.000Z,4.5
2023-04-30T00:16:13.000Z,5.4
2023-04-30T00:17:29.000Z,4.7
2023-04-30T00:18:44.000Z,5
2023-04-30T00:20:01.075Z,5.2
2023-04-30T00:21:17.000Z,5.3
2023-04-30T00:22:32.000Z,5.1
2023-04-30T00:23:47.000Z,5.1
2023-04-30T00:25:04.000Z,5.4
2023-04-30T00:26:20.000Z,4.8
2023-04-30T00:27:36.000Z,5.6
2023-04-30T00:28:52.000Z,5.8
2023-04-30T00:30:09.000Z,5.2
2023-04-30T00:31:25.000Z,4.8
2023-04-30T00:32:41.000Z,5.2
2023-04-30T00:33:58.000Z,5.4
2023-04-30T00:35:14.000Z,5.6
2023-04-30T00:36:30.000Z,5.7
2023-04-30T00:37:46.000Z,5.7
2023-04-30T00:39:03.000Z,5.8
2023-04-30T00:40:18.733Z,6
2023-04-30T00:41:34.000Z,6.5
2023-04-30T00:42:51.309Z,5.4
2023-04-30T00:44:07.000Z,6
2023-04-30T00:45:23.891Z,5.4
2023-04-30T00:46:39.000Z,5.7
2023-04-30T00:47:56.000Z,5.1
2023-04-30T00:49:11.000Z,4.8
2023-04-30T00:50:26.000Z,6.1
2023-04-30T00:51:42.000Z,5.1
2023-04-30T00:52:57.000Z,5
2023-04-30T00:54:13.000Z,5.3
2023-04-30T00:55:30.000Z,4.3
2023-04-30T00:56:46.000Z,5
2023-04-30T00:58:02.807Z,5.1
2023-04-30T00:59:18.000Z,4.9
2023-04-30T01:00:35.000Z,4.6
2023-04-30T01:01:51.000Z,4.9
2023-04-30T01:03:07.000Z,4.9
2023-04-30T01:04:24.000Z,4.6
2023-04-30T01:05:40.000Z,4.5
2023-04-30T01:06:56.000Z,4.5
2023-04-30T01:08:12.000Z,5.3
2023-04-30T01:09:28.000Z,4.2
2023-04-30T01:10:44.000Z,5.4
2023-04-30T01:12:00.000Z,5
2023-04-30T01:13:17.000Z,5
2023-04-30T01:14:33.000Z,6.6
2023-04-30T01:15:49.000Z,5
2023-04-30T01:17:05.000Z,4.2
2023-04-30T01:18:21.000Z,5.1
2023-04-30T01:19:36.000Z,4.6
2023-04-30T01:20:52.000Z,4.5
2023-04-30T01:22:09.000Z,5
2023-04-30T01:23:24.667Z,5.1
2023-04-30T01:24:39.963Z,4.2
2023-04-30T01:25:56.000Z,4.7
2023-04-30T01:27:12.000Z,4.8
2023-04-30T01:28:28.000Z,5.4
2023-04-30T01:29:44.000Z,4.7
2023-04-30T01:31:01.000Z,4.5
2023-04-30T01:32:17.000Z,4.7
2023-04-30T01:33:33.000Z,4.9
2023-04-30T01:34:50.000Z,4.6
2023-04-30T01:36:06.561Z,5.2
2023-04-30T01:37:22.000Z,4.9
2023-04-30T01:38:38.000Z,4.7
2023-04-30T01:39:55.000Z,5
2023-04-30T01:41:10.000Z,5
2023-04-30T01:42:26.000Z,5.2
2023-04-30T01:43:43.000Z,5
2023-04-30T01:44:59.000Z,4.5
2023-04-30T01:46:15.000Z,5.3
2023-04-30T01:47:31.000Z,5.1
2023-04-30T01:48:48.000Z,5.4
2023-04-30T01:50:03.000Z,4.9
2023-04-30T01:51:19.064Z,5.2
2023-04-30T01:52:34.000Z,5.4
2023-04-30T01:53:49.000Z,5.3
2023-04-30T01:55:05.000Z,4.6
2023-04-30T01:56:21.000Z,5
2023-04-30T01:57:37.000Z,5.2
2023-04-30T01:58:53.000Z,5.2
2023-04-30T02:00:09.000Z,5.4
2023-04-30T02:01:26.434Z,5
2023-04-30T02:02:42.000Z,4.9
2023-04-30T02:03:58.000Z,5.2
2023-04-30T02:05:15.000Z,4.9
2023-04-30T02:06:31.000Z,5
2023-04-30T02:07:47.000Z,5.4
2023-04-30T02:09:03.000Z,5.3
2023-04-30T02:10:20.000Z,5.2
2023-04-30T02:11:36.000Z,5.2
2023-04-30T02:12:52.000Z,5.2
2023-04-30T02:14:08.310Z,5.2
2023-04-30T02:15:24.000Z,5.3
2023-04-30T02:16:40.000Z,5.3
2023-04-30T02:17:56.000Z,5.2
2023-04-30T02:19:12.000Z,5.2
2023-04-30T02:20:27.000Z,5.3
2023-04-30T02:21:43.000Z,5.2
2023-04-30T02:23:00.000Z,5.1
2023-04-30T02:24:15.000Z,5.1
2023-04-30T02:25:30.000Z,5.4
2023-04-30T02:26:47.000Z,5.5
2023-04-30T02:28:03.000Z,5.3
2023-04-30T02:29:19.000Z,4.9
2023-04-30T02:30:35.000Z,5.6
2023-04-30T02:31:52.000Z,5.4
2023-04-30T02:33:08.000Z,5.4
2023-04-30T02:34:24.000Z,5.5
2023-04-30T02:35:41.000Z,5.9
2023-04-30T02:36:57.000Z,5.6
2023-04-30T02:38:13.000Z,5.2
2023-04-30T02:39:30.123Z,5
2023-04-30T02:40:46.000Z,5.4
2023-04-30T02:42:01.000Z,5.1
2023-04-30T02:43:17.000Z,5.4
2023-04-30T02:44:34.000Z,5.3
2023-04-30T02:45:50.000Z,4.7
2023-04-30T02:47:06.000Z,5.6
2023-04-30T02:48:22.000Z,5.6
2023-04-30T02:49:39.000Z,5.1
2023-04-30T02:50:54.000Z,4.8
2023-04-30T02:52:10.071Z,5.2
2023-04-30T02:53:26.000Z,5.8
2023-04-30T02:54:42.000Z,5.4
2023-04-30T02:55:58.000Z,5.1
2023-04-30T02:57:14.000Z,5.1
2023-04-30T02:58:31.000Z,4.9
2023-04-30T02:59:47.000Z,5
2023-04-30T03:01:03.000Z,5.1
2023-04-30T03:02:20.000Z,4.9
2023-04-30T03:03:36.000Z,5.4
2023-04-30T03:04:52.928Z,5.4
2023-04-30T03:06:08.000Z,4.8
2023-04-30T03:07:25.000Z,5.1
2023-04-30T03:08:40.000Z,5.4
2023-04-30T03:09:56.000Z,4.6
2023-04-30T03:11:13.000Z,5.1
2023-04-30T03:12:29.000Z,4.7
2023-04-30T03:13:45.000Z,5.1
2023-04-30T03:15:02.000Z,4.8
2023-04-30T03:16:18.000Z,4.9
2023-04-30T03:17:33.848Z,4.8
2023-04-30T03:18:48.000Z,5.1
2023-04-30T03:20:04.000Z,5.2
2023-04-30T03:21:19.000Z,4.5
2023-04-30T03:22:35.000Z,5
2023-04-30T03:23:51.000Z,5.1
2023-04-30T03:25:06.000Z,4.7
2023-04-30T03:26:22.000Z,4.6
2023-04-30T03:27:38.000Z,5.1
2023-04-30T03:28:55.000Z,4.8
2023-04-30T03:30:11.669Z,5.1
2023-04-30T03:31:27.000Z,5.2
2023-04-30T03:32:43.000Z,5.1
2023-04-30T03:34:00.000Z,5.2
2023-04-30T03:35:16.000Z,5.2
2023-04-30T03:36:32.000Z,4.9
2023-04-30T03:37:49.000Z,5
2023-04-30T03:39:05.000Z,5.1
2023-04-30T03:40:21.000Z,4.4
2023-04-30T03:41:36.000Z,5.1
2023-04-30T03:42:52.000Z,4.6
2023-04-30T03:44:09.000Z,4.3
2023-04-30T03:45:25.000Z,4.1
2023-04-30T03:46:41.000Z,4.7
2023-04-30T03:47:57.000Z,4.7
2023-04-30T03:49:14.000Z,5.2
2023-04-30T03:50:30.000Z,4.7
2023-04-30T03:51:46.000Z,4.7
2023-04-30T03:53:02.000Z,4.9
2023-04-30T03:54:19.000Z,4.9
2023-04-30T03:55:35.561Z,4.5
2023-04-30T03:56:51.000Z,4.3
2023-04-30T03:58:06.000Z,4.9
2023-04-30T03:59:23.000Z,4.2
2023-04-30T04:00:39.000Z,4.4
2023-04-30T04:01:55.000Z,5.2
2023-04-30T04:03:10.000Z,4.6
2023-04-30T04:04:25.000Z,4.6
2023-04-30T04:05:42.000Z,5
2023-04-30T04:06:58.711Z,4.9
2023-04-30T04:08:14.000Z,4.4
2023-04-30T04:09:30.000Z,4.8
2023-04-30T04:10:46.000Z,4.6
2023-04-30T04:12:01.000Z,4.5
2023-04-30T04:13:17.000Z,4.6
2023-04-30T04:14:33.000Z,5
2023-04-30T04:15:50.000Z,4.6
2023-04-30T04:17:06.000Z,4.3
2023-04-30T04:18:22.000Z,4.6
2023-04-30T04:19:38.000Z,4.4
2023-04-30T04:20:55.000Z,4.4
2023-04-30T04:22:11.000Z,4.4
2023-04-30T04:23:27.000Z,4.8
2023-04-30T04:24:43.000Z,4.3
2023-04-30T04:26:00.000Z,4.8
2023-04-30T04:27:16.000Z,4.6
2023-04-30T04:28:31.734Z,4.3
2023-04-30T04:29:47.000Z,4.3
2023-04-30T04:31:03.000Z,4.4
2023-04-30T04:32:20.000Z,3.7
2023-04-30T04:33:36.000Z,4
2023-04-30T04:34:52.000Z,4.4
2023-04-30T04:36:08.000Z,4
2023-04-30T04:37:24.000Z,3.7
2023-04-30T04:38:39.000Z,4.5
2023-04-30T04:39:54.000Z,3.9
2023-04-30T04:41:09.000Z,3.4
2023-04-30T04:42:26.000Z,3.6
2023-04-30T04:43:42.000Z,3.6
2023-04-30T04:44:58.000Z,4.2
2023-04-30T04:46:15.079Z,3.7
2023-04-30T04:47:31.000Z,3.5
2023-04-30T04:48:47.000Z,3.9
2023-04-30T04:50:03.000Z,3.5
2023-04-30T04:51:19.000Z,3.5
2023-04-30T04:52:36.000Z,3.8
2023-04-30T04:53:52.000Z,3.7
2023-04-30T04:55:08.000Z,3.8
2023-04-30T04:56:24.000Z,3.5
2023-04-30T04:57:39.000Z,4.4
2023-04-30T04:58:56.000Z,3.7
2023-04-30T05:00:12.000Z,3.2
2023-04-30T05:01:28.000Z,3.4
2023-04-30T05:02:44.000Z,3.3
2023-04-30T05:04:01.384Z,3.8
2023-04-30T05:05:17.000Z,3.7
2023-04-30T05:06:32.000Z,3.8
2023-04-30T05:07:47.000Z,3.6
2023-04-30T05:09:04.000Z,3.3
2023-04-30T05:10:20.000Z,3.7
2023-04-30T05:11:36.821Z,3.8
2023-04-30T05:12:53.072Z,5.4
2023-04-30T05:14:08.000Z,3.1
2023-04-30T05:15:23.000Z,3.1
2023-04-30T05:16:39.000Z,3.6
2023-04-30T05:17:55.000Z,2.8
2023-04-30T05:19:12.000Z,3.7
2023-04-30T05:20:28.000Z,3.2
2023-04-30T05:21:44.732Z,3.3
2023-04-30T05:23:00.000Z,3.1
2023-04-30T05:24:17.202Z,3.1
2023-04-30T05:25:33.000Z,3.4
2023-04-30T05:26:49.000Z,3.1
2023-04-30T05:28:05.000Z,3.3
2023-04-30T05:29:21.000Z,3.3
2023-04-30T05:30:38.000Z,4.1
2023-04-30T05:31:53.000Z,3.3
2023-04-30T05:33:09.000Z,3.2
2023-04-30T05:34:25.000Z,2.9
2023-04-30T05:35:42.000Z,3.2
2023-04-30T05:36:58.000Z,3.2
2023-04-30T05:38:14.000Z,3.1
2023-04-30T05:39:30.000Z,2.6
2023-04-30T05:40:47.000Z,3.1
2023-04-30T05:42:03.000Z,2.9
2023-04-30T05:43:18.000Z,2.8
2023-04-30T05:44:33.000Z,2.8
2023-04-30T05:45:49.000Z,2.7
2023-04-30T05:47:06.000Z,3.3
2023-04-30T05:48:22.000Z,2.6
2023-04-30T05:49:37.962Z,2.9
2023-04-30T05:50:52.000Z,2.9
2023-04-30T05:52:09.000Z,2.7
2023-04-30T05:53:25.000Z,2.7
2023-04-30T05:54:41.000Z,2.7
2023-04-30T05:55:57.000Z,2.5
2023-04-30T05:57:14.000Z,3.6
2023-04-30T05:58:30.000Z,3.4
2023-04-30T05:59:46.000Z,2.7
2023-04-30T06:01:02.000Z,2.9
2023-04-30T06:02:19.317Z,3.2
2023-04-30T06:03:35.000Z,3.1
2023-04-30T06:04:51.000Z,3.2
2023-04-30T06:06:07.000Z,2.6
2023-04-30T06:07:23.000Z,2.6
2023-04-30T06:08:39.000Z,2.9
2023-04-30T06:09:55.000Z,2.6
2023-04-30T06:11:11.000Z,2.6
2023-04-30T06:12:26.000Z,2.8
2023-04-30T06:13:43.000Z,3.2
2023-04-30T06:14:59.000Z,2.4
2023-04-30T06:16:15.000Z,3.3
2023-04-30T06:17:31.000Z,3.5
2023-04-30T06:18:48.000Z,3
2023-04-30T06:20:04.000Z,2.8
2023-04-30T06:21:20.000Z,2.7
2023-04-30T06:22:35.000Z,3.2
2023-04-30T06:23:51.000Z,3.4
2023-04-30T06:25:07.577Z,2.8
2023-04-30T06:26:23.000Z,3.1
2023-04-30T06:27:39.072Z,2.7
2023-04-30T06:28:54.000Z,2.9
2023-04-30T06:30:10.000Z,3
2023-04-30T06:31:26.000Z,3.2
2023-04-30T06:32:42.000Z,4.6
2023-04-30T06:33:59.000Z,3.3
2023-04-30T06:35:15.000Z,2.8
2023-04-30T06:36:31.000Z,3.1
2023-04-30T06:37:47.000Z,3.4
2023-04-30T06:39:03.000Z,3.2
2023-04-30T06:40:20.433Z,3.5
2023-04-30T06:41:36.000Z,3.3
2023-04-30T06:42:52.000Z,3.2
2023-04-30T06:44:08.000Z,3
2023-04-30T06:45:24.000Z,3.6
2023-04-30T06:46:40.000Z,3.1
2023-04-30T06:47:56.000Z,3.4
2023-04-30T06:49:12.000Z,3.4
2023-04-30T06:50:29.000Z,3.6
2023-04-30T06:51:45.000Z,3.4
2023-04-30T06:53:01.000Z,3.1
2023-04-30T06:54:16.000Z,3.7
2023-04-30T06:55:32.000Z,3.3
2023-04-30T06:56:48.000Z,3.3
2023-04-30T06:58:04.000Z,3.4
2023-04-30T06:59:19.000Z,3.8
2023-04-30T07:00:35.000Z,3.3
2023-04-30T07:01:51.000Z,3.2
2023-04-30T07:03:07.000Z,3.3
2023-04-30T07:04:23.000Z,3.3
2023-04-30T07:05:39.000Z,2.5
2023-04-30T07:06:56.000Z,3.6
2023-04-30T07:08:12.000Z,3.2
2023-04-30T07:09:28.000Z,3
2023-04-30T07:10:44.000Z,3.6
2023-04-30T07:12:01.000Z,3.4
2023-04-30T07:13:17.000Z,3.4
2023-04-30T07:14:33.000Z,3.2
2023-04-30T07:15:49.000Z,3.4
2023-04-30T07:17:05.000Z,3.1
2023-04-30T07:18:21.553Z,3.3
2023-04-30T07:19:37.000Z,3
2023-04-30T07:20:53.000Z,3
2023-04-30T07:22:09.000Z,3.7
2023-04-30T07:23:26.000Z,3
2023-04-30T07:24:42.000Z,3.1
2023-04-30T07:25:57.000Z,2.8
2023-04-30T07:27:12.000Z,3
2023-04-30T07:28:28.463Z,3.1
2023-04-30T07:29:43.000Z,3
2023-04-30T07:30:59.977Z,3.7
2023-04-30T07:32:15.000Z,3.7
2023-04-30T07:33:32.000Z,3.9
2023-04-30T07:34:48.000Z,3.2
2023-04-30T07:36:04.000Z,2.9
2023-04-30T07:37:20.000Z,3
2023-04-30T07:38:37.000Z,2.5
2023-04-30T07:39:53.587Z,2.8
2023-04-30T07:41:09.833Z,2.6
2023-04-30T07:42:25.000Z,2.7
2023-04-30T07:43:42.000Z,2.7
2023-04-30T07:44:58.526Z,2.9
2023-04-30T07:46:13.000Z,3.6
2023-04-30T07:47:29.000Z,2.8
2023-04-30T07:48:45.000Z,2.9
2023-04-30T07:50:02.000Z,2.8
2023-04-30T07:51:18.000Z,2.8
2023-04-30T07:52:34.000Z,3
2023-04-30T07:53:50.000Z,2.8
2023-04-30T07:55:06.000Z,2.5
2023-04-30T07:56:21.000Z,2.6
2023-04-30T07:57:37.916Z,2.5
2023-04-30T07:58:52.000Z,2.7
2023-04-30T08:00:08.000Z,2.6
2023-04-30T08:01:24.000Z,2.9
2023-04-30T08:02:40.000Z,2.9
2023-04-30T08:03:56.000Z,2.5
2023-04-30T08:05:13.000Z,3.1
2023-04-30T08:06:29.000Z,2.5
2023-04-30T08:07:45.000Z,2.7
2023-04-30T08:09:02.060Z,2.5
2023-04-30T08:10:18.308Z,2.4
2023-04-30T08:11:34.000Z,2.9
2023-04-30T08:12:50.000Z,2.7
2023-04-30T08:14:06.000Z,3
2023-04-30T08:15:23.247Z,2.7
2023-04-30T08:16:38.000Z,2.7
2023-04-30T08:17:54.000Z,2.4
2023-04-30T08:19:10.000Z,3.3
2023-04-30T08:20:26.000Z,4
2023-04-30T08:21:43.000Z,2.5
2023-04-30T08:22:59.000Z,3
2023-04-30T08:24:15.000Z,2.5
2023-04-30T08:25:30.000Z,2.5
2023-04-30T08:26:46.000Z,3
2023-04-30T08:28:01.000Z,2.8
2023-04-30T08:29:16.000Z,3
2023-04-30T08:30:32.000Z,3
2023-04-30T08:31:49.000Z,3.1
2023-04-30T08:33:05.579Z,3.1
2023-04-30T08:34:21.000Z,3.1
2023-04-30T08:35:37.000Z,2.6
2023-04-30T08:36:54.000Z,2.8
2023-04-30T08:38:10.000Z,2.8
2023-04-30T08:39:26.000Z,3.6
2023-04-30T08:40:42.000Z,2.8
2023-04-30T08:41:58.000Z,2.8
2023-04-30T08:43:15.000Z,2.6
2023-04-30T08:44:31.000Z,2.7
2023-04-30T08:45:46.000Z,4.1
2023-04-30T08:47:03.179Z,2.7
2023-04-30T08:48:19.000Z,3.1
2023-04-30T08:49:35.000Z,2.8
2023-04-30T08:50:51.000Z,2.7
2023-04-30T08:52:07.000Z,3.4
2023-04-30T08:53:24.000Z,2.9
2023-04-30T08:54:39.000Z,2.9
2023-04-30T08:55:54.000Z,2.4
2023-04-30T08:57:10.000Z,2.3
2023-04-30T08:58:27.000Z,2.4
2023-04-30T08:59:42.599Z,2.5
2023-04-30T09:00:57.000Z,2.4
2023-04-30T09:02:13.000Z,2.5
2023-04-30T09:03:30.000Z,2.6
2023-04-30T09:04:46.000Z,2.3
2023-04-30T09:06:02.000Z,2.5
2023-04-30T09:07:18.000Z,2.4
2023-04-30T09:08:34.000Z,2.7
2023-04-30T09:09:51.000Z,2.8
2023-04-30T09:11:07.000Z,2.4
2023-04-30T09:12:23.000Z,2.7
2023-04-30T09:13:39.000Z,2.6
2023-04-30T09:14:56.000Z,2.7
2023-04-30T09:16:12.000Z,2.6
2023-04-30T09:17:27.000Z,2.5
2023-04-30T09:18:43.000Z,2.6
2023-04-30T09:20:00.000Z,2.7
2023-04-30T09:21:16.000Z,3
2023-04-30T09:22:32.000Z,2.4
2023-04-30T09:23:48.000Z,4.4
2023-04-30T09:25:05.249Z,2.7
2023-04-30T09:26:21.000Z,2.5
2023-04-30T09:27:37.000Z,2.8
2023-04-30T09:28:53.000Z,2.6
2023-04-30T09:30:09.000Z,2.6
2023-04-30T09:31:26.000Z,2.3
2023-04-30T09:32:42.000Z,2.3
2023-04-30T09:33:57.000Z,2.1
2023-04-30T09:35:14.140Z,2.1
2023-04-30T09:36:30.000Z,2.4
2023-04-30T09:37:46.000Z,2.4
2023-04-30T09:39:02.000Z,3
2023-04-30T09:40:18.000Z,2.3
2023-04-30T09:41:35.000Z,2.4
2023-04-30T09:42:51.000Z,2.5
2023-04-30T09:44:07.000Z,2.4
2023-04-30T09:45:23.000Z,2.3
2023-04-30T09:46:40.000Z,2.6
2023-04-30T09:47:56.000Z,2.7
2023-04-30T09:49:12.000Z,2.5
2023-04-30T09:50:27.985Z,2.2
2023-04-30T09:51:43.000Z,2.5
2023-04-30T09:53:00.000Z,2
2023-04-30T09:54:16.000Z,2.1
2023-04-30T09:55:32.000Z,2.5
2023-04-30T09:56:48.000Z,2.1
2023-04-30T09:58:05.000Z,2.4
2023-04-30T09:59:21.000Z,2.1
2023-04-30T10:00:37.000Z,2.4
2023-04-30T10:01:53.000Z,2.3
2023-04-30T10:03:10.000Z,2.4
2023-04-30T10:04:26.000Z,2.2
2023-04-30T10:05:42.000Z,2.4
2023-04-30T10:06:57.000Z,2.2
2023-04-30T10:08:13.000Z,2.5
2023-04-30T10:09:30.000Z,2.4
2023-04-30T10:10:46.000Z,2
2023-04-30T10:12:02.000Z,2.3
2023-04-30T10:13:18.000Z,2.3
2023-04-30T10:14:35.000Z,2
2023-04-30T10:15:51.650Z,2.3
2023-04-30T10:17:07.000Z,2.4
2023-04-30T10:18:23.000Z,2.1
2023-04-30T10:19:40.000Z,2.2
2023-04-30T10:20:56.000Z,2.2
2023-04-30T10:22:12.000Z,2.1
2023-04-30T10:23:27.000Z,2.3
2023-04-30T10:24:44.000Z,2.1
2023-04-30T10:26:00.000Z,2.7
2023-04-30T10:27:15.000Z,2.5
2023-04-30T10:28:32.017Z,2.3
2023-04-30T10:29:47.000Z,2.4
2023-04-30T10:31:04.000Z,2.3
2023-04-30T10:32:20.000Z,2.6
2023-04-30T10:33:36.000Z,2.5
2023-04-30T10:34:52.000Z,2.6
2023-04-30T10:36:09.000Z,2.2
2023-04-30T10:37:25.000Z,2.4
2023-04-30T10:38:41.000Z,2.3
2023-04-30T10:39:57.000Z,2.3
2023-04-30T10:41:14.352Z,1.9
2023-04-30T10:42:30.000Z,2.2
2023-04-30T10:43:45.000Z,2.2
2023-04-30T10:45:01.000Z,2.2
2023-04-30T10:46:18.000Z,2.4
2023-04-30T10:47:34.000Z,2.3
2023-04-30T10:48:50.000Z,2.5
2023-04-30T10:50:06.000Z,2.4
2023-04-30T10:51:22.000Z,2.4
2023-04-30T10:52:39.000Z,2
2023-04-30T10:53:55.000Z,2
2023-04-30T10:55:11.000Z,2.1
2023-04-30T10:56:26.000Z,2
2023-04-30T10:57:42.000Z,2.1
2023-04-30T10:58:58.000Z,2
2023-04-30T11:00:14.000Z,2.1
2023-04-30T11:01:30.000Z,2.1
2023-04-30T11:02:47.365Z,1.8
2023-04-30T11:04:02.000Z,1.8
2023-04-30T11:05:17.000Z,1.9
2023-04-30T11:06:33.000Z,2.1
2023-04-30T11:07:50.349Z,1.8
2023-04-30T11:09:06.000Z,1.7
2023-04-30T11:10:22.805Z,1.8
2023-04-30T11:11:38.000Z,1.6
2023-04-30T11:12:55.000Z,2.1
2023-04-30T11:14:11.000Z,1.8
2023-04-30T11:15:27.000Z,1.6
2023-04-30T11:16:43.000Z,1.9
2023-04-30T11:17:59.000Z,2
2023-04-30T11:19:16.433Z,1.7
2023-04-30T11:20:32.000Z,2
2023-04-30T11:21:47.000Z,2
2023-04-30T11:23:03.000Z,2
2023-04-30T11:24:20.000Z,1.7
2023-04-30T11:25:36.000Z,1.5
2023-04-30T11:26:52.000Z,1.8
2023-04-30T11:28:08.000Z,1.6
2023-04-30T11:29:25.000Z,1.5
2023-04-30T11:30:41.540Z,2.2
2023-04-30T11:31:57.000Z,2.2
2023-04-30T11:33:13.000Z,2.1
2023-04-30T11:34:29.000Z,1.8
2023-04-30T11:35:46.000Z,1.8
2023-04-30T11:37:02.000Z,1.8
2023-04-30T11:38:17.000Z,1.6
2023-04-30T11:39:33.000Z,1.9
2023-04-30T11:40:50.000Z,1.9
2023-04-30T11:42:06.000Z,2.1
2023-04-30T11:43:22.000Z,2.2
2023-04-30T11:44:39.124Z,1.9
2023-04-30T11:45:55.000Z,1.9
2023-04-30T11:47:11.000Z,1.8
2023-04-30T11:48:27.000Z,2
2023-04-30T11:49:43.000Z,2.2
2023-04-30T11:51:00.000Z,2.4
2023-04-30T11:52:16.000Z,2.6
2023-04-30T11:53:32.000Z,2.1
2023-04-30T11:54:47.000Z,2.1
2023-04-30T11:56:03.000Z,2.2
2023-04-30T11:57:20.469Z,1.9
2023-04-30T11:58:36.000Z,1.5
2023-04-30T11:59:52.000Z,1.7
2023-04-30T12:01:08.000Z,1.8
2023-04-30T12:02:25.000Z,1.9
2023-04-30T12:03:41.000Z,2.2
2023-04-30T12:04:57.000Z,2.3
2023-04-30T12:06:13.000Z,1.8
2023-04-30T12:07:30.000Z,1.7
2023-04-30T12:08:46.000Z,1.7
2023-04-30T12:10:02.000Z,1.7
2023-04-30T12:11:17.000Z,1.6
2023-04-30T12:12:34.000Z,1.9
2023-04-30T12:13:50.000Z,1.7
2023-04-30T12:15:06.000Z,1.6
2023-04-30T12:16:22.987Z,2.5
2023-04-30T12:17:38.000Z,1.7
2023-04-30T12:18:55.452Z,2.1
2023-04-30T12:20:11.431Z,1.7
2023-04-30T12:21:27.000Z,1.8
2023-04-30T12:22:44.149Z,1.6
2023-04-30T12:24:00.000Z,1.8
2023-04-30T12:25:16.000Z,1.7
2023-04-30T12:26:32.000Z,2
2023-04-30T12:27:47.000Z,1.4
2023-04-30T12:29:04.000Z,2
2023-04-30T12:30:20.000Z,2.4
2023-04-30T12:31:36.000Z,1.8
2023-04-30T12:32:52.000Z,1.8
2023-04-30T12:34:09.000Z,2
2023-04-30T12:35:25.000Z,1.6
2023-04-30T12:36:41.000Z,1.9
2023-04-30T12:37:57.000Z,2
2023-04-30T12:39:13.000Z,1.7
2023-04-30T12:40:29.000Z,2
2023-04-30T12:41:44.000Z,1.9
2023-04-30T12:42:59.000Z,1.8
2023-04-30T12:44:14.000Z,1.8
2023-04-30T12:45:31.000Z,1.7
2023-04-30T12:46:47.000Z,1.9
2023-04-30T12:48:03.000Z,1.8
2023-04-30T12:49:19.000Z,1.8
2023-04-30T12:50:36.000Z,1.8
2023-04-30T12:51:52.000Z,1.8
2023-04-30T12:53:08.000Z,1.6
2023-04-30T12:54:24.000Z,1.8
2023-04-30T12:55:41.000Z,1.8
2023-04-30T12:56:57.000Z,1.4
2023-04-30T12:58:13.000Z,1.6
2023-04-30T12:59:30.012Z,1.6
2023-04-30T13:00:45.267Z,1.7
2023-04-30T13:02:01.000Z,2.1
2023-04-30T13:03:17.000Z,1.6
2023-04-30T13:04:33.000Z,1.9
2023-04-30T13:05:49.000Z,1.9
2023-04-30T13:07:06.000Z,2.1
2023-04-30T13:08:22.000Z,1.9
2023-04-30T13:09:38.878Z,1.9
2023-04-30T13:10:54.000Z,1.4
2023-04-30T13:12:11.000Z,1.8
2023-04-30T13:13:26.000Z,1.5
2023-04-30T13:14:41.000Z,1.4
2023-04-30T13:15:57.000Z,1.3
2023-04-30T13:17:14.000Z,1.2
2023-04-30T13:18:29.000Z,1.3
2023-04-30T13:19:44.000Z,1.4
2023-04-30T13:21:00.000Z,1.4
2023-04-30T13:22:17.000Z,1.4
2023-04-30T13:23:33.000Z,1.1
2023-04-30T13:24:49.000Z,1.5
2023-04-30T13:26:05.000Z,1.4
2023-04-30T13:27:21.000Z,1.3
2023-04-30T13:28:38.000Z,1.2
2023-04-30T13:29:54.000Z,1.4
2023-04-30T13:31:10.949Z,1.4
2023-04-30T13:32:26.000Z,1.6
2023-04-30T13:33:43.000Z,1.5
2023-04-30T13:34:59.000Z,1.4
2023-04-30T13:36:14.000Z,1.4
2023-04-30T13:37:30.000Z,1.6
2023-04-30T13:38:47.350Z,1.5
2023-04-30T13:40:03.000Z,1.3
2023-04-30T13:41:19.000Z,1.5
2023-04-30T13:42:35.000Z,1.5
2023-04-30T13:43:52.000Z,1.6
2023-04-30T13:45:08.000Z,1.5
2023-04-30T13:46:24.000Z,1.6
2023-04-30T13:47:40.000Z,1.3
2023-04-30T13:48:56.000Z,1.3
2023-04-30T13:50:13.000Z,1.5
2023-04-30T13:51:29.000Z,1.5
2023-04-30T13:52:44.937Z,1.5
2023-04-30T13:54:00.000Z,1.6
2023-04-30T13:55:17.000Z,1.4
2023-04-30T13:56:33.000Z,1.8
2023-04-30T13:57:49.000Z,1.4
2023-04-30T13:59:05.000Z,1.7
2023-04-30T14:00:22.331Z,1.8
2023-04-30T14:01:38.000Z,1.5
2023-04-30T14:02:54.000Z,1.5
2023-04-30T14:04:11.037Z,1.3
2023-04-30T14:05:27.000Z,1.3
2023-04-30T14:06:43.000Z,1.3
2023-04-30T14:07:59.000Z,1.5
2023-04-30T14:09:14.000Z,1.6
2023-04-30T14:10:30.000Z,1.7
2023-04-30T14:11:47.000Z,1.2
2023-04-30T14:13:03.000Z,1.7
2023-04-30T14:14:19.000Z,1.5
2023-04-30T14:15:35.000Z,1.6
2023-04-30T14:16:52.000Z,1.5
2023-04-30T14:18:08.000Z,1.3
2023-04-30T14:19:24.000Z,1.5
2023-04-30T14:20:40.000Z,1.3
2023-04-30T14:21:57.000Z,1.6
2023-04-30T14:23:13.000Z,1.6
2023-04-30T14:24:29.000Z,1.6
2023-04-30T14:25:44.000Z,1.1
2023-04-30T14:27:00.000Z,1.1
2023-04-30T14:28:17.000Z,1.9
2023-04-30T14:30:49.000Z,1.5
2023-04-30T14:32:05.000Z,1.4
2023-04-30T14:33:22.000Z,1.1
2023-04-30T14:34:38.000Z,1.9
2023-04-30T14:35:54.000Z,1.5
2023-04-30T14:37:10.000Z,2.7
2023-04-30T14:38:27.346Z,1.5
2023-04-30T14:39:43.000Z,1.5
2023-04-30T14:40:59.000Z,1.3
2023-04-30T14:42:14.000Z,1.5
2023-04-30T14:43:30.000Z,1.7
2023-04-30T14:44:45.000Z,1.4
2023-04-30T14:46:00.823Z,1.7
2023-04-30T14:47:16.000Z,1.8
2023-04-30T14:48:33.000Z,1.5
2023-04-30T14:49:49.000Z,2
2023-04-30T14:51:05.000Z,1.7
2023-04-30T14:52:21.000Z,1.6
2023-04-30T14:53:37.000Z,1.4
2023-04-30T14:54:54.000Z,2.1
2023-04-30T14:56:10.000Z,1.7
2023-04-30T14:57:26.000Z,1.4
2023-04-30T14:58:42.000Z,1.8
2023-04-30T14:59:59.000Z,1.5
2023-04-30T15:01:15.000Z,1.4
2023-04-30T15:02:30.000Z,1.4
2023-04-30T15:03:46.000Z,1.7
2023-04-30T15:05:03.000Z,1.5
2023-04-30T15:06:19.000Z,1.6
2023-04-30T15:07:35.819Z,1.7
2023-04-30T15:08:51.000Z,2.3
2023-04-30T15:10:08.000Z,1.7
2023-04-30T15:11:23.000Z,1.8
2023-04-30T15:12:38.000Z,2.3
2023-04-30T15:13:54.000Z,2
2023-04-30T15:15:10.000Z,2.3
2023-04-30T15:16:25.000Z,2.2
2023-04-30T15:17:41.000Z,2.5
2023-04-30T15:18:57.000Z,2.4
2023-04-30T15:20:14.212Z,3.3
2023-04-30T15:21:30.000Z,2.2
2023-04-30T15:22:46.000Z,2
2023-04-30T15:24:02.000Z,2.2
2023-04-30T15:25:18.000Z,2.1
2023-04-30T15:26:35.000Z,1.6
2023-04-30T15:27:51.000Z,2.2
2023-04-30T15:29:07.000Z,2
2023-04-30T15:30:23.000Z,1.9
2023-04-30T15:31:40.000Z,2.2
2023-04-30T15:32:55.000Z,1.9
2023-04-30T15:34:11.000Z,2.2
2023-04-30T15:35:27.000Z,1.9
2023-04-30T15:36:44.000Z,2
2023-04-30T15:38:00.000Z,1.8
2023-04-30T15:39:16.000Z,2.1
2023-04-30T15:40:32.000Z,1.8
2023-04-30T15:41:48.000Z,2.2
2023-04-30T15:43:05.428Z,1.9
2023-04-30T15:44:21.000Z,1.7
2023-04-30T15:45:37.903Z,2.1
2023-04-30T15:46:53.000Z,2.3
2023-04-30T15:48:10.000Z,1.8
2023-04-30T15:49:25.000Z,2.2
2023-04-30T15:50:40.000Z,2.3
2023-04-30T15:51:55.000Z,2.2
2023-04-30T15:53:11.000Z,2.2
2023-04-30T15:54:26.000Z,3.4
2023-04-30T15:55:42.000Z,2.5
2023-04-30T15:56:58.000Z,2
2023-04-30T15:58:15.349Z,1.9
2023-04-30T15:59:31.000Z,2.6
2023-04-30T16:00:47.000Z,2.3
2023-04-30T16:02:03.000Z,2.3
2023-04-30T16:03:20.000Z,2.3
2023-04-30T16:04:36.000Z,2.4
2023-04-30T16:05:52.000Z,2.1
2023-04-30T16:07:08.000Z,1.6
2023-04-30T16:08:24.000Z,2.1
2023-04-30T16:09:41.000Z,1.8
2023-04-30T16:10:56.000Z,1.9
2023-04-30T16:12:12.912Z,2.1
2023-04-30T16:13:28.000Z,2.3
2023-04-30T16:14:45.000Z,2.3
2023-04-30T16:16:01.000Z,2.4
2023-04-30T16:17:17.867Z,2.3
2023-04-30T16:18:33.000Z,2.1
2023-04-30T16:19:50.000Z,1.7
2023-04-30T16:21:06.000Z,2.7
2023-04-30T16:22:22.000Z,1.5
2023-04-30T16:23:39.009Z,2
2023-04-30T16:24:55.000Z,2
2023-04-30T16:26:11.000Z,2.6
2023-04-30T16:27:26.000Z,2.1
2023-04-30T16:28:42.000Z,1.9
2023-04-30T16:29:58.000Z,1.7
2023-04-30T16:31:15.000Z,2
2023-04-30T16:32:31.000Z,1.7
2023-04-30T16:33:47.000Z,1.7
2023-04-30T16:35:03.000Z,1.7
2023-04-30T16:36:20.362Z,1.6
2023-04-30T16:37:36.000Z,1.9
2023-04-30T16:38:51.000Z,1.7
2023-04-30T16:40:06.000Z,1.8
2023-04-30T16:41:23.000Z,1.2
2023-04-30T16:42:39.000Z,1.7
2023-04-30T16:43:54.000Z,1.7
2023-04-30T16:45:09.000Z,2
2023-04-30T16:46:26.000Z,1.7
2023-04-30T16:47:42.000Z,1.9
2023-04-30T16:48:58.000Z,1.8
2023-04-30T16:50:14.000Z,1.9
2023-04-30T16:51:30.000Z,1.9
2023-04-30T16:52:47.000Z,1.6
2023-04-30T16:54:03.000Z,2.3
2023-04-30T16:55:19.000Z,1.9
2023-04-30T16:56:35.000Z,1.7
2023-04-30T16:57:52.000Z,1.6
2023-04-30T16:59:08.000Z,1.6
2023-04-30T17:00:24.000Z,1.8
2023-04-30T17:01:39.000Z,1.6
2023-04-30T17:02:56.000Z,1.6
2023-04-30T17:04:12.000Z,1.6
2023-04-30T17:05:28.833Z,1.8
2023-04-30T17:06:44.000Z,1.7
2023-04-30T17:08:01.000Z,1.7
2023-04-30T17:09:17.000Z,1.5
2023-04-30T17:10:33.000Z,1.7
2023-04-30T17:11:49.000Z,1.6
2023-04-30T17:13:05.000Z,1.8
2023-04-30T17:14:22.457Z,1.8
2023-04-30T17:15:38.000Z,2
2023-04-30T17:16:54.000Z,2
2023-04-30T17:18:09.000Z,2.1
2023-04-30T17:19:26.384Z,1.7
2023-04-30T17:20:42.000Z,1.3
2023-04-30T17:21:58.000Z,1.7
2023-04-30T17:23:14.000Z,1.6
2023-04-30T17:24:31.000Z,2.3
2023-04-30T17:25:47.000Z,2.2
2023-04-30T17:27:03.792Z,2.2
2023-04-30T17:28:19.000Z,1.9
2023-04-30T17:29:36.000Z,2.1
2023-04-30T17:30:52.000Z,2.2
2023-04-30T17:32:08.000Z,1.7
2023-04-30T17:33:24.000Z,1.8
2023-04-30T17:34:39.000Z,1.5
2023-04-30T17:35:56.000Z,2.9